Time,TemperatureF,DewpointF,PressureIn,WindDirection,WindDirectionDegrees,WindSpeedMPH,WindSpeedGustMPH,Humidity,HourlyPrecipIn,Conditions,Clouds,dailyrainin,SoftwareType,DateUTC
2013-02-12 00:02:00,43.9,40.6,30.42,SW,227,0.0,0.0,88,0.00,,,0.06,Wunderground v.1.15,2013-02-12 08:02:00,
2013-02-12 00:07:00,43.8,40.5,30.42,SW,227,0.0,0.0,88,0.00,,,0.06,Wunderground v.1.15,2013-02-12 08:07:00,
2013-02-12 00:13:00,43.8,40.8,30.41,SW,227,0.0,0.0,89,0.00,,,0.06,Wunderground v.1.15,2013-02-12 08:13:00,
2013-02-12 00:18:00,43.7,40.7,30.41,SW,227,0.0,0.0,89,0.00,,,0.06,Wunderground v.1.15,2013-02-12 08:18:00,
2013-02-12 00:24:00,43.6,40.6,30.42,SW,227,0.0,0.0,89,0.00,,,0.06,Wunderground v.1.15,2013-02-12 08:24:00,
2013-02-12 00:29:00,43.6,40.6,30.41,SW,227,0.0,0.0,89,0.00,,,0.06,Wunderground v.1.15,2013-02-12 08:29:00,
2013-02-12 00:35:00,43.5,40.5,30.41,SW,227,0.0,0.0,89,0.00,,,0.06,Wunderground v.1.15,2013-02-12 08:35:00,
2013-02-12 00:40:00,43.5,40.2,30.42,SW,227,0.0,0.0,88,0.00,,,0.06,Wunderground v.1.15,2013-02-12 08:40:00,
2013-02-12 00:46:00,43.6,40.6,30.42,SW,227,0.0,0.0,89,0.00,,,0.06,Wunderground v.1.15,2013-02-12 08:46:00,
2013-02-12 00:52:00,43.6,40.6,30.41,SW,227,0.0,0.0,89,0.00,,,0.06,Wunderground v.1.15,2013-02-12 08:52:00,
2013-02-12 00:57:00,43.6,40.6,30.41,SW,227,0.0,0.0,89,0.00,,,0.06,Wunderground v.1.15,2013-02-12 08:57:00,
2013-02-12 01:02:00,43.6,40.6,30.41,SW,227,0.0,0.0,89,0.00,,,0.06,Wunderground v.1.15,2013-02-12 09:02:00,
2013-02-12 01:07:00,43.5,40.5,30.41,SW,227,0.0,0.0,89,0.00,,,0.06,Wunderground v.1.15,2013-02-12 09:07:00,
2013-02-12 01:13:00,43.5,40.5,30.41,SW,227,0.0,0.0,89,0.00,,,0.06,Wunderground v.1.15,2013-02-12 09:13:00,
2013-02-12 01:18:00,43.6,40.6,30.41,SW,227,0.0,0.0,89,0.00,,,0.06,Wunderground v.1.15,2013-02-12 09:18:00,
2013-02-12 01:24:00,43.6,40.6,30.41,SW,227,0.0,0.0,89,0.00,,,0.06,Wunderground v.1.15,2013-02-12 09:24:00,
2013-02-12 01:29:00,43.6,40.6,30.41,SW,227,0.0,0.0,89,0.00,,,0.06,Wunderground v.1.15,2013-02-12 09:29:00,
2013-02-12 01:35:00,43.7,40.7,30.41,SW,227,0.0,0.0,89,0.00,,,0.06,Wunderground v.1.15,2013-02-12 09:35:00,
2013-02-12 01:41:00,43.8,40.8,30.41,SW,227,0.0,0.0,89,0.00,,,0.06,Wunderground v.1.15,2013-02-12 09:41:00,
2013-02-12 01:46:00,43.8,40.8,30.41,SW,227,0.0,0.0,89,0.00,,,0.06,Wunderground v.1.15,2013-02-12 09:46:00,
2013-02-12 01:51:00,43.8,40.8,30.41,SW,227,0.0,0.0,89,0.00,,,0.06,Wunderground v.1.15,2013-02-12 09:51:00,
2013-02-12 01:57:00,43.8,40.8,30.41,SW,227,0.0,0.0,89,0.00,,,0.06,Wunderground v.1.15,2013-02-12 09:57:00,
2013-02-12 02:02:00,43.8,40.8,30.41,SW,227,0.0,0.0,89,0.00,,,0.06,Wunderground v.1.15,2013-02-12 10:02:00,
2013-02-12 02:07:00,43.8,40.8,30.41,SW,227,0.0,0.0,89,0.00,,,0.06,Wunderground v.1.15,2013-02-12 10:07:00,
2013-02-12 02:12:00,43.8,40.8,30.41,SW,227,0.0,0.0,89,0.00,,,0.06,Wunderground v.1.15,2013-02-12 10:12:00,
2013-02-12 02:17:00,43.9,40.9,30.41,SW,227,0.0,0.0,89,0.00,,,0.06,Wunderground v.1.15,2013-02-12 10:17:00,
2013-02-12 02:22:00,43.9,40.9,30.41,SW,227,0.0,0.0,89,0.00,,,0.06,Wunderground v.1.15,2013-02-12 10:22:00,
2013-02-12 02:27:00,44.0,41.0,30.42,SW,227,0.0,2.0,89,0.00,,,0.00,Wunderground v.1.15,2013-02-12 10:27:00,
2013-02-12 02:32:00,44.2,41.5,30.42,SW,227,0.0,1.0,90,0.00,,,0.00,Wunderground v.1.15,2013-02-12 10:32:00,
2013-02-12 02:37:00,44.3,41.6,30.42,SW,227,0.0,1.0,90,0.00,,,0.00,Wunderground v.1.15,2013-02-12 10:37:00,
2013-02-12 02:42:00,44.3,41.8,30.42,SW,227,0.0,0.0,91,0.00,,,0.00,Wunderground v.1.15,2013-02-12 10:42:00,
2013-02-12 02:47:00,44.3,41.8,30.42,SW,227,0.0,0.0,91,0.00,,,0.01,Wunderground v.1.15,2013-02-12 10:47:00,
2013-02-12 02:52:00,44.4,41.9,30.42,SW,227,0.0,0.0,91,0.00,,,0.01,Wunderground v.1.15,2013-02-12 10:52:00,
2013-02-12 02:57:00,44.3,41.8,30.42,SW,227,0.0,0.0,91,0.00,,,0.01,Wunderground v.1.15,2013-02-12 10:57:00,
2013-02-12 03:02:00,44.3,41.8,30.42,SW,227,0.0,2.0,91,0.00,,,0.01,Wunderground v.1.15,2013-02-12 11:02:00,
2013-02-12 03:07:00,44.2,41.7,30.42,SW,227,0.0,2.0,91,0.00,,,0.01,Wunderground v.1.15,2013-02-12 11:07:00,
2013-02-12 03:12:00,44.1,41.6,30.42,SW,227,0.0,0.0,91,0.00,,,0.01,Wunderground v.1.15,2013-02-12 11:12:00,
2013-02-12 03:17:00,44.1,41.6,30.42,SW,227,0.0,0.0,91,0.00,,,0.01,Wunderground v.1.15,2013-02-12 11:17:00,
2013-02-12 03:22:00,44.0,41.8,30.42,SW,227,1.0,1.0,92,0.00,,,0.01,Wunderground v.1.15,2013-02-12 11:22:00,
2013-02-12 03:27:00,44.0,41.8,30.42,SW,227,0.0,2.0,92,0.00,,,0.01,Wunderground v.1.15,2013-02-12 11:27:00,
2013-02-12 03:32:00,43.8,41.6,30.42,SW,227,0.0,3.0,92,0.00,,,0.01,Wunderground v.1.15,2013-02-12 11:32:00,
2013-02-12 03:37:00,43.7,41.5,30.42,SW,227,0.0,3.0,92,0.00,,,0.01,Wunderground v.1.15,2013-02-12 11:37:00,
2013-02-12 03:42:00,43.6,41.4,30.42,SW,224,2.0,4.0,92,0.00,,,0.01,Wunderground v.1.15,2013-02-12 11:42:00,
2013-02-12 03:47:00,43.5,41.3,30.42,SW,224,0.0,4.0,92,0.00,,,0.01,Wunderground v.1.15,2013-02-12 11:47:00,
2013-02-12 03:52:00,43.4,41.2,30.42,SW,224,0.0,2.0,92,0.00,,,0.01,Wunderground v.1.15,2013-02-12 11:52:00,
2013-02-12 03:57:00,43.5,41.3,30.42,SW,224,0.0,2.0,92,0.00,,,0.01,Wunderground v.1.15,2013-02-12 11:57:00,
2013-02-12 04:02:00,43.5,41.6,30.42,SW,224,0.0,0.0,93,0.00,,,0.01,Wunderground v.1.15,2013-02-12 12:02:00,
2013-02-12 04:07:00,43.5,41.6,30.42,SW,224,0.0,0.0,93,0.00,,,0.01,Wunderground v.1.15,2013-02-12 12:07:00,
2013-02-12 04:12:00,43.6,41.7,30.42,SW,224,0.0,0.0,93,0.00,,,0.01,Wunderground v.1.15,2013-02-12 12:12:00,
2013-02-12 04:17:00,43.6,41.7,30.42,SW,224,0.0,0.0,93,0.00,,,0.01,Wunderground v.1.15,2013-02-12 12:17:00,
2013-02-12 04:22:00,43.7,41.8,30.42,SW,224,0.0,0.0,93,0.00,,,0.01,Wunderground v.1.15,2013-02-12 12:22:00,
2013-02-12 04:27:00,43.8,41.9,30.42,SW,224,0.0,0.0,93,0.00,,,0.01,Wunderground v.1.15,2013-02-12 12:27:00,
2013-02-12 04:33:00,43.9,42.0,30.42,SW,224,0.0,1.0,93,0.00,,,0.01,Wunderground v.1.15,2013-02-12 12:33:00,
2013-02-12 04:38:00,43.8,41.9,30.42,SW,224,0.0,1.0,93,0.00,,,0.01,Wunderground v.1.15,2013-02-12 12:38:00,
2013-02-12 04:43:00,43.7,41.8,30.42,SW,224,0.0,0.0,93,0.00,,,0.01,Wunderground v.1.15,2013-02-12 12:43:00,
2013-02-12 04:48:00,43.7,41.8,30.42,SW,224,0.0,0.0,93,0.00,,,0.01,Wunderground v.1.15,2013-02-12 12:48:00,
2013-02-12 04:53:00,43.6,41.7,30.42,SW,224,0.0,0.0,93,0.00,,,0.01,Wunderground v.1.15,2013-02-12 12:53:00,
2013-02-12 04:58:00,43.6,41.7,30.41,SW,224,0.0,0.0,93,0.00,,,0.01,Wunderground v.1.15,2013-02-12 12:58:00,
2013-02-12 05:03:00,43.6,41.7,30.41,SW,224,0.0,0.0,93,0.00,,,0.01,Wunderground v.1.15,2013-02-12 13:03:00,
2013-02-12 05:08:00,43.5,41.6,30.41,SW,224,0.0,0.0,93,0.00,,,0.01,Wunderground v.1.15,2013-02-12 13:08:00,
2013-02-12 05:13:00,43.5,41.6,30.41,SW,224,0.0,0.0,93,0.00,,,0.01,Wunderground v.1.15,2013-02-12 13:13:00,
2013-02-12 05:18:00,43.4,41.5,30.42,SW,224,0.0,0.0,93,0.00,,,0.01,Wunderground v.1.15,2013-02-12 13:18:00,
2013-02-12 05:23:00,43.4,41.5,30.42,SW,224,0.0,0.0,93,0.00,,,0.01,Wunderground v.1.15,2013-02-12 13:23:00,
2013-02-12 05:28:00,43.4,41.5,30.41,SW,224,0.0,0.0,93,0.00,,,0.01,Wunderground v.1.15,2013-02-12 13:28:00,
2013-02-12 05:33:00,43.7,42.1,30.41,SW,224,0.0,7.0,94,0.00,,,0.01,Wunderground v.1.15,2013-02-12 13:33:00,
2013-02-12 05:38:00,44.0,42.4,30.42,SW,224,4.0,7.0,94,0.00,,,0.01,Wunderground v.1.15,2013-02-12 13:38:00,
2013-02-12 05:44:00,44.2,42.6,30.42,SW,224,0.0,6.0,94,0.00,,,0.01,Wunderground v.1.15,2013-02-12 13:44:00,
2013-02-12 05:49:00,44.3,42.7,30.42,SW,224,0.0,6.0,94,0.00,,,0.01,Wunderground v.1.15,2013-02-12 13:49:00,
2013-02-12 05:54:00,44.3,42.7,30.42,SW,224,0.0,4.0,94,0.00,,,0.01,Wunderground v.1.15,2013-02-12 13:54:00,
2013-02-12 05:59:00,44.3,42.7,30.42,SW,224,0.0,4.0,94,0.00,,,0.01,Wunderground v.1.15,2013-02-12 13:59:00,
2013-02-12 06:04:00,44.4,42.8,30.42,SW,224,0.0,5.0,94,0.00,,,0.01,Wunderground v.1.15,2013-02-12 14:04:00,
2013-02-12 06:09:00,44.5,42.9,30.42,SW,222,0.0,7.0,94,0.00,,,0.01,Wunderground v.1.15,2013-02-12 14:09:00,
2013-02-12 06:14:00,44.5,42.9,30.43,SW,222,3.0,7.0,94,0.00,,,0.01,Wunderground v.1.15,2013-02-12 14:14:00,
2013-02-12 06:19:00,44.5,42.9,30.42,SW,221,0.0,7.0,94,0.00,,,0.01,Wunderground v.1.15,2013-02-12 14:19:00,
2013-02-12 06:24:00,44.5,42.9,30.42,SW,221,2.0,5.0,94,0.00,,,0.01,Wunderground v.1.15,2013-02-12 14:24:00,
2013-02-12 06:29:00,44.6,43.0,30.42,SW,215,1.0,9.0,94,0.00,,,0.01,Wunderground v.1.15,2013-02-12 14:29:00,
2013-02-12 06:34:00,44.6,43.0,30.42,SSW,213,5.0,9.0,94,0.00,,,0.01,Wunderground v.1.15,2013-02-12 14:34:00,
2013-02-12 06:39:00,44.6,43.0,30.42,SSW,213,1.0,9.0,94,0.00,,,0.01,Wunderground v.1.15,2013-02-12 14:39:00,
2013-02-12 06:44:00,44.6,43.0,30.42,SSW,211,1.0,6.0,94,0.00,,,0.01,Wunderground v.1.15,2013-02-12 14:44:00,
2013-02-12 06:49:00,44.7,43.1,30.42,SSW,207,6.0,11.0,94,0.00,,,0.01,Wunderground v.1.15,2013-02-12 14:49:00,
2013-02-12 06:54:00,44.7,42.8,30.42,SSW,206,0.0,7.0,93,0.00,,,0.01,Wunderground v.1.15,2013-02-12 14:54:00,
2013-02-12 06:59:00,44.7,42.8,30.42,SSW,206,5.0,9.0,93,0.00,,,0.01,Wunderground v.1.15,2013-02-12 14:59:00,
2013-02-12 07:04:00,44.7,42.8,30.43,SSW,207,0.0,5.0,93,0.00,,,0.01,Wunderground v.1.15,2013-02-12 15:04:00,
2013-02-12 07:09:00,44.7,42.8,30.43,SSW,207,2.0,2.0,93,0.00,,,0.01,Wunderground v.1.15,2013-02-12 15:09:00,
2013-02-12 07:14:00,44.7,42.8,30.42,SSW,205,0.0,7.0,93,0.00,,,0.01,Wunderground v.1.15,2013-02-12 15:14:00,
2013-02-12 07:19:00,44.7,42.8,30.43,SSW,205,0.0,1.0,93,0.00,,,0.01,Wunderground v.1.15,2013-02-12 15:19:00,
2013-02-12 07:24:00,44.7,42.8,30.43,SSW,205,3.0,7.0,93,0.00,,,0.01,Wunderground v.1.15,2013-02-12 15:24:00,
2013-02-12 07:29:00,44.7,42.8,30.43,SSW,207,2.0,4.0,93,0.00,,,0.01,Wunderground v.1.15,2013-02-12 15:29:00,
2013-02-12 07:34:00,44.8,42.9,30.43,SSW,213,1.0,9.0,93,0.00,,,0.01,Wunderground v.1.15,2013-02-12 15:34:00,
2013-02-12 07:39:00,44.8,42.9,30.44,SSW,211,3.0,7.0,93,0.00,,,0.01,Wunderground v.1.15,2013-02-12 15:39:00,
2013-02-12 07:44:00,44.8,42.9,30.44,SSW,210,4.0,7.0,93,0.00,,,0.01,Wunderground v.1.15,2013-02-12 15:44:00,
2013-02-12 07:49:00,44.8,42.9,30.44,SSW,209,3.0,5.0,93,0.00,,,0.01,Wunderground v.1.15,2013-02-12 15:49:00,
2013-02-12 07:55:00,44.8,42.9,30.44,SSW,212,0.0,8.0,93,0.00,,,0.01,Wunderground v.1.15,2013-02-12 15:55:00,
2013-02-12 08:00:00,44.8,42.9,30.44,SSW,210,2.0,3.0,93,0.00,,,0.01,Wunderground v.1.15,2013-02-12 16:00:00,
2013-02-12 08:05:00,44.9,43.0,30.44,SSW,206,3.0,7.0,93,0.00,,,0.01,Wunderground v.1.15,2013-02-12 16:05:00,
2013-02-12 08:10:00,44.9,43.3,30.44,SSW,205,0.0,3.0,94,0.00,,,0.01,Wunderground v.1.15,2013-02-12 16:10:00,
2013-02-12 08:15:00,44.9,43.3,30.44,SSW,204,0.0,7.0,94,0.00,,,0.01,Wunderground v.1.15,2013-02-12 16:15:00,
2013-02-12 08:20:00,44.9,43.3,30.44,SSW,204,0.0,2.0,94,0.00,,,0.01,Wunderground v.1.15,2013-02-12 16:20:00,
2013-02-12 08:25:00,44.9,43.3,30.45,SSW,205,2.0,5.0,94,0.00,,,0.01,Wunderground v.1.15,2013-02-12 16:25:00,
2013-02-12 08:30:00,45.0,43.4,30.45,SSW,205,2.0,4.0,94,0.00,,,0.01,Wunderground v.1.15,2013-02-12 16:30:00,
2013-02-12 08:35:00,45.0,43.4,30.44,SSW,204,3.0,6.0,94,0.00,,,0.01,Wunderground v.1.15,2013-02-12 16:35:00,
2013-02-12 08:40:00,45.2,43.6,30.44,SSW,202,1.0,2.0,94,0.00,,,0.01,Wunderground v.1.15,2013-02-12 16:40:00,
2013-02-12 08:45:00,45.4,43.8,30.44,SSW,196,0.0,9.0,94,0.00,,,0.01,Wunderground v.1.15,2013-02-12 16:45:00,
2013-02-12 08:50:00,45.6,43.7,30.44,SSW,200,2.0,4.0,93,0.00,,,0.02,Wunderground v.1.15,2013-02-12 16:50:00,
2013-02-12 08:55:00,45.7,43.8,30.45,SSW,202,5.0,9.0,93,0.00,,,0.02,Wunderground v.1.15,2013-02-12 16:55:00,
2013-02-12 09:00:00,45.8,43.9,30.45,SSW,203,3.0,5.0,93,0.00,,,0.02,Wunderground v.1.15,2013-02-12 17:00:00,
2013-02-12 09:05:00,45.8,43.9,30.45,SSW,203,3.0,6.0,93,0.00,,,0.02,Wunderground v.1.15,2013-02-12 17:05:00,
2013-02-12 09:10:00,45.8,43.9,30.45,SSW,206,0.0,3.0,93,0.00,,,0.02,Wunderground v.1.15,2013-02-12 17:10:00,
2013-02-12 09:15:00,45.8,43.6,30.44,SSW,192,5.0,11.0,92,0.00,,,0.02,Wunderground v.1.15,2013-02-12 17:15:00,
2013-02-12 09:20:00,45.8,43.6,30.45,SSW,203,1.0,7.0,92,0.00,,,0.02,Wunderground v.1.15,2013-02-12 17:20:00,
2013-02-12 09:25:00,45.7,43.5,30.45,SSW,208,2.0,7.0,92,0.00,,,0.02,Wunderground v.1.15,2013-02-12 17:25:00,
2013-02-12 09:30:00,45.7,43.5,30.45,SSW,204,2.0,10.0,92,0.00,,,0.02,Wunderground v.1.15,2013-02-12 17:30:00,
2013-02-12 09:36:00,45.7,43.5,30.45,SSW,197,0.0,10.0,92,0.00,,,0.02,Wunderground v.1.15,2013-02-12 17:36:00,
2013-02-12 09:41:00,45.8,43.6,30.45,SSW,200,5.0,9.0,92,0.00,,,0.02,Wunderground v.1.15,2013-02-12 17:41:00,
2013-02-12 09:46:00,45.8,43.3,30.45,South,190,1.0,9.0,91,0.00,,,0.02,Wunderground v.1.15,2013-02-12 17:46:00,
2013-02-12 09:51:00,45.8,43.3,30.45,South,182,2.0,4.0,91,0.00,,,0.02,Wunderground v.1.15,2013-02-12 17:51:00,
2013-02-12 09:56:00,45.9,43.4,30.45,South,190,1.0,5.0,91,0.00,,,0.02,Wunderground v.1.15,2013-02-12 17:56:00,
2013-02-12 10:01:00,45.9,43.4,30.44,SSW,202,4.0,9.0,91,0.00,,,0.02,Wunderground v.1.15,2013-02-12 18:01:00,
2013-02-12 10:06:00,45.9,43.4,30.45,SW,215,0.0,11.0,91,0.00,,,0.02,Wunderground v.1.15,2013-02-12 18:06:00,
2013-02-12 10:11:00,46.0,43.5,30.45,SSW,196,4.0,4.0,91,0.00,,,0.02,Wunderground v.1.15,2013-02-12 18:11:00,
2013-02-12 10:16:00,45.9,43.4,30.45,SSW,197,2.0,7.0,91,0.00,,,0.02,Wunderground v.1.15,2013-02-12 18:16:00,
2013-02-12 10:21:00,45.9,43.7,30.45,South,186,5.0,6.0,92,0.00,,,0.02,Wunderground v.1.15,2013-02-12 18:21:00,
2013-02-12 10:26:00,45.8,43.6,30.45,South,184,5.0,7.0,92,0.00,,,0.02,Wunderground v.1.15,2013-02-12 18:26:00,
2013-02-12 10:31:00,45.7,43.5,30.45,SSW,193,2.0,4.0,92,0.00,,,0.02,Wunderground v.1.15,2013-02-12 18:31:00,
2013-02-12 10:36:00,45.6,43.4,30.45,South,191,0.0,6.0,92,0.00,,,0.02,Wunderground v.1.15,2013-02-12 18:36:00,
2013-02-12 10:41:00,45.5,43.3,30.46,SSW,192,0.0,6.0,92,0.00,,,0.02,Wunderground v.1.15,2013-02-12 18:41:00,
2013-02-12 10:46:00,45.5,43.6,30.46,South,188,0.0,6.0,93,0.00,,,0.02,Wunderground v.1.15,2013-02-12 18:46:00,
2013-02-12 10:51:00,45.5,43.6,30.46,SSW,193,1.0,3.0,93,0.00,,,0.02,Wunderground v.1.15,2013-02-12 18:51:00,
2013-02-12 10:56:00,45.4,43.5,30.46,SSW,197,0.0,7.0,93,0.00,,,0.02,Wunderground v.1.15,2013-02-12 18:56:00,
2013-02-12 11:02:00,45.5,43.6,30.47,SSW,197,0.0,1.0,93,0.00,,,0.02,Wunderground v.1.15,2013-02-12 19:02:00,
2013-02-12 11:07:00,45.5,43.6,30.47,SSW,197,0.0,1.0,93,0.00,,,0.02,Wunderground v.1.15,2013-02-12 19:07:00,
2013-02-12 11:12:00,45.5,43.6,30.46,SSW,197,0.0,2.0,93,0.00,,,0.02,Wunderground v.1.15,2013-02-12 19:12:00,
2013-02-12 11:17:00,45.5,43.6,30.46,SSW,197,0.0,2.0,93,0.00,,,0.02,Wunderground v.1.15,2013-02-12 19:17:00,
2013-02-12 11:22:00,45.6,43.7,30.46,SSW,193,0.0,3.0,93,0.00,,,0.02,Wunderground v.1.15,2013-02-12 19:22:00,
2013-02-12 11:27:00,45.6,43.7,30.46,SSW,193,0.0,3.0,93,0.00,,,0.03,Wunderground v.1.15,2013-02-12 19:27:00,
2013-02-12 11:32:00,45.7,44.1,30.46,SSW,193,3.0,3.0,94,0.00,,,0.03,Wunderground v.1.15,2013-02-12 19:32:00,
2013-02-12 11:37:00,45.8,43.9,30.46,SSW,193,0.0,3.0,93,0.00,,,0.03,Wunderground v.1.15,2013-02-12 19:37:00,
2013-02-12 11:42:00,45.9,44.3,30.45,SSW,193,0.0,2.0,94,0.00,,,0.03,Wunderground v.1.15,2013-02-12 19:42:00,
2013-02-12 11:47:00,46.0,44.4,30.45,SSW,192,2.0,4.0,94,0.00,,,0.03,Wunderground v.1.15,2013-02-12 19:47:00,
2013-02-12 11:52:00,46.0,44.4,30.45,South,191,0.0,1.0,94,0.00,,,0.03,Wunderground v.1.15,2013-02-12 19:52:00,
2013-02-12 11:57:00,46.0,44.4,30.45,South,191,0.0,2.0,94,0.00,,,0.03,Wunderground v.1.15,2013-02-12 19:57:00,
2013-02-12 12:02:00,46.0,44.4,30.44,South,189,0.0,5.0,94,0.00,,,0.03,Wunderground v.1.15,2013-02-12 20:02:00,
2013-02-12 12:07:00,46.0,44.4,30.44,South,189,0.0,5.0,94,0.00,,,0.03,Wunderground v.1.15,2013-02-12 20:07:00,
2013-02-12 12:12:00,46.1,44.5,30.45,South,189,0.0,2.0,94,0.00,,,0.03,Wunderground v.1.15,2013-02-12 20:12:00,
2013-02-12 12:17:00,46.1,44.5,30.45,South,189,0.0,2.0,94,0.00,,,0.03,Wunderground v.1.15,2013-02-12 20:17:00,
2013-02-12 12:22:00,46.1,44.5,30.45,South,189,0.0,0.0,94,0.00,,,0.03,Wunderground v.1.15,2013-02-12 20:22:00,
2013-02-12 12:27:00,46.1,44.5,30.45,South,189,0.0,1.0,94,0.00,,,0.03,Wunderground v.1.15,2013-02-12 20:27:00,
2013-02-12 12:32:00,46.1,44.5,30.45,South,189,0.0,0.0,94,0.00,,,0.03,Wunderground v.1.15,2013-02-12 20:32:00,
2013-02-12 12:37:00,46.1,44.5,30.44,South,189,0.0,0.0,94,0.00,,,0.03,Wunderground v.1.15,2013-02-12 20:37:00,
2013-02-12 12:42:00,46.1,44.5,30.44,South,189,0.0,0.0,94,0.00,,,0.03,Wunderground v.1.15,2013-02-12 20:42:00,
2013-02-12 12:47:00,46.1,44.5,30.43,South,189,0.0,0.0,94,0.00,,,0.03,Wunderground v.1.15,2013-02-12 20:47:00,
2013-02-12 12:52:00,46.1,44.5,30.43,South,189,0.0,0.0,94,0.00,,,0.03,Wunderground v.1.15,2013-02-12 20:52:00,
2013-02-12 12:57:00,46.1,44.5,30.43,South,189,0.0,2.0,94,0.00,,,0.03,Wunderground v.1.15,2013-02-12 20:57:00,
2013-02-12 13:02:00,46.2,44.6,30.43,South,189,0.0,0.0,94,0.00,,,0.03,Wunderground v.1.15,2013-02-12 21:02:00,
2013-02-12 13:07:00,46.2,44.6,30.43,South,189,0.0,0.0,94,0.00,,,0.03,Wunderground v.1.15,2013-02-12 21:07:00,
2013-02-12 13:12:00,46.2,44.6,30.42,South,189,0.0,0.0,94,0.00,,,0.03,Wunderground v.1.15,2013-02-12 21:12:00,
2013-02-12 13:17:00,46.3,44.7,30.43,South,189,0.0,0.0,94,0.00,,,0.03,Wunderground v.1.15,2013-02-12 21:17:00,
2013-02-12 13:22:00,46.3,44.7,30.43,South,189,0.0,0.0,94,0.00,,,0.03,Wunderground v.1.15,2013-02-12 21:22:00,
2013-02-12 13:28:00,46.3,44.7,30.42,South,189,0.0,0.0,94,0.00,,,0.03,Wunderground v.1.15,2013-02-12 21:28:00,
2013-02-12 13:33:00,46.3,44.7,30.42,South,189,0.0,2.0,94,0.00,,,0.03,Wunderground v.1.15,2013-02-12 21:33:00,
2013-02-12 13:38:00,46.4,44.8,30.42,South,189,1.0,4.0,94,0.00,,,0.03,Wunderground v.1.15,2013-02-12 21:38:00,
2013-02-12 13:43:00,46.4,44.8,30.41,South,188,4.0,5.0,94,0.00,,,0.03,Wunderground v.1.15,2013-02-12 21:43:00,
2013-02-12 13:48:00,46.5,44.9,30.41,SSW,202,4.0,8.0,94,0.00,,,0.03,Wunderground v.1.15,2013-02-12 21:48:00,
2013-02-12 13:53:00,46.7,45.1,30.42,SSW,207,4.0,7.0,94,0.00,,,0.03,Wunderground v.1.15,2013-02-12 21:53:00,
2013-02-12 13:58:00,46.8,45.2,30.42,SSW,207,5.0,7.0,94,0.00,,,0.03,Wunderground v.1.15,2013-02-12 21:58:00,
2013-02-12 14:03:00,46.9,45.0,30.41,SSW,203,2.0,6.0,93,0.00,,,0.03,Wunderground v.1.15,2013-02-12 22:03:00,
2013-02-12 14:08:00,47.0,45.1,30.41,SSW,194,3.0,7.0,93,0.00,,,0.03,Wunderground v.1.15,2013-02-12 22:08:00,
2013-02-12 14:13:00,47.2,45.3,30.40,SW,218,6.0,7.0,93,0.00,,,0.03,Wunderground v.1.15,2013-02-12 22:13:00,
2013-02-12 14:18:00,47.4,45.5,30.40,SW,217,9.0,13.0,93,0.00,,,0.03,Wunderground v.1.15,2013-02-12 22:18:00,
2013-02-12 14:23:00,47.5,45.3,30.40,SSW,202,7.0,11.0,92,0.00,,,0.03,Wunderground v.1.15,2013-02-12 22:23:00,
2013-02-12 14:28:00,47.6,45.1,30.39,SSW,203,13.0,14.0,91,0.00,,,0.03,Wunderground v.1.15,2013-02-12 22:28:00,
2013-02-12 14:33:00,47.6,44.8,30.38,SSW,206,11.0,16.0,90,0.00,,,0.03,Wunderground v.1.15,2013-02-12 22:33:00,
2013-02-12 14:38:00,47.8,45.0,30.38,SW,221,12.0,16.0,90,0.00,,,0.03,Wunderground v.1.15,2013-02-12 22:38:00,
2013-02-12 14:43:00,48.0,44.9,30.39,South,183,7.0,12.0,89,0.00,,,0.03,Wunderground v.1.15,2013-02-12 22:43:00,
2013-02-12 14:48:00,48.1,45.0,30.39,SSE,165,6.0,14.0,89,0.00,,,0.03,Wunderground v.1.15,2013-02-12 22:48:00,
2013-02-12 14:53:00,48.1,44.7,30.38,South,179,5.0,14.0,88,0.00,,,0.03,Wunderground v.1.15,2013-02-12 22:53:00,
2013-02-12 14:58:00,48.1,44.7,30.39,SSW,200,2.0,14.0,88,0.00,,,0.03,Wunderground v.1.15,2013-02-12 22:58:00,
2013-02-12 15:03:00,48.2,44.8,30.39,SW,236,3.0,15.0,88,0.00,,,0.03,Wunderground v.1.15,2013-02-12 23:03:00,
2013-02-12 15:08:00,48.3,44.6,30.39,SW,218,3.0,15.0,87,0.00,,,0.03,Wunderground v.1.15,2013-02-12 23:08:00,
2013-02-12 15:13:00,48.3,44.6,30.40,SSW,205,5.0,10.0,87,0.00,,,0.03,Wunderground v.1.15,2013-02-12 23:13:00,
2013-02-12 15:18:00,48.3,44.6,30.40,SSW,200,2.0,10.0,87,0.00,,,0.03,Wunderground v.1.15,2013-02-12 23:18:00,
2013-02-12 15:23:00,48.4,44.7,30.40,South,189,6.0,13.0,87,0.00,,,0.03,Wunderground v.1.15,2013-02-12 23:23:00,
2013-02-12 15:28:00,48.6,44.6,30.40,South,189,10.0,13.0,86,0.00,,,0.03,Wunderground v.1.15,2013-02-12 23:28:00,
2013-02-12 15:33:00,48.8,44.8,30.39,SSW,196,1.0,11.0,86,0.00,,,0.03,Wunderground v.1.15,2013-02-12 23:33:00,
2013-02-12 15:38:00,48.9,44.9,30.40,WSW,245,11.0,12.0,86,0.00,,,0.03,Wunderground v.1.15,2013-02-12 23:38:00,
2013-02-12 15:43:00,49.0,44.7,30.40,SE,145,11.0,11.0,85,0.00,,,0.03,Wunderground v.1.15,2013-02-12 23:43:00,
2013-02-12 15:48:00,49.2,44.9,30.40,SW,227,18.0,19.0,85,0.00,,,0.03,Wunderground v.1.15,2013-02-12 23:48:00,
2013-02-12 15:54:00,49.3,44.7,30.39,SW,224,2.0,17.0,84,0.00,,,0.04,Wunderground v.1.15,2013-02-12 23:54:00,
2013-02-12 15:59:00,49.4,44.8,30.38,SW,219,11.0,17.0,84,0.00,,,0.04,Wunderground v.1.15,2013-02-12 23:59:00,
2013-02-12 16:04:00,49.5,44.9,30.39,SE,137,7.0,12.0,84,0.00,,,0.04,Wunderground v.1.15,2013-02-13 00:04:00,
2013-02-12 16:09:00,49.4,44.8,30.38,SW,216,7.0,15.0,84,0.00,,,0.04,Wunderground v.1.15,2013-02-13 00:09:00,
2013-02-12 16:14:00,49.4,44.5,30.38,South,176,10.0,23.0,83,0.00,,,0.04,Wunderground v.1.15,2013-02-13 00:14:00,
2013-02-12 16:19:00,49.5,44.6,30.38,WSW,257,5.0,23.0,83,0.00,,,0.04,Wunderground v.1.15,2013-02-13 00:19:00,
2013-02-12 16:24:00,49.5,44.6,30.38,SW,229,7.0,16.0,83,0.00,,,0.04,Wunderground v.1.15,2013-02-13 00:24:00,
2013-02-12 16:29:00,49.6,44.6,30.38,SSW,192,10.0,18.0,83,0.00,,,0.04,Wunderground v.1.15,2013-02-13 00:29:00,
2013-02-12 16:34:00,49.6,44.3,30.38,SW,234,7.0,14.0,82,0.00,,,0.04,Wunderground v.1.15,2013-02-13 00:34:00,
2013-02-12 16:39:00,49.6,44.3,30.38,SW,230,6.0,14.0,82,0.00,,,0.04,Wunderground v.1.15,2013-02-13 00:39:00,
2013-02-12 16:44:00,49.6,44.3,30.39,SW,223,7.0,18.0,82,0.00,,,0.04,Wunderground v.1.15,2013-02-13 00:44:00,
2013-02-12 16:49:00,49.7,44.4,30.39,SW,219,2.0,18.0,82,0.00,,,0.04,Wunderground v.1.15,2013-02-13 00:49:00,
2013-02-12 16:54:00,49.7,44.4,30.39,South,188,6.0,16.0,82,0.00,,,0.04,Wunderground v.1.15,2013-02-13 00:54:00,
2013-02-12 17:00:00,49.7,44.4,30.39,SSE,159,2.0,6.0,82,0.00,,,0.04,Wunderground v.1.15,2013-02-13 01:00:00,
2013-02-12 17:05:00,49.7,44.1,30.39,SW,221,2.0,13.0,81,0.00,,,0.04,Wunderground v.1.15,2013-02-13 01:05:00,
2013-02-12 17:10:00,49.7,44.4,30.38,SW,216,9.0,9.0,82,0.00,,,0.04,Wunderground v.1.15,2013-02-13 01:10:00,
2013-02-12 17:15:00,49.7,44.4,30.38,South,188,5.0,12.0,82,0.00,,,0.04,Wunderground v.1.15,2013-02-13 01:15:00,
2013-02-12 17:20:00,49.6,44.3,30.39,South,173,7.0,9.0,82,0.00,,,0.04,Wunderground v.1.15,2013-02-13 01:20:00,
2013-02-12 17:25:00,49.6,44.3,30.39,South,173,3.0,16.0,82,0.00,,,0.04,Wunderground v.1.15,2013-02-13 01:25:00,
2013-02-12 17:30:00,49.6,44.3,30.39,NNW,340,0.0,6.0,82,0.00,,,0.04,Wunderground v.1.15,2013-02-13 01:30:00,
2013-02-12 17:35:00,49.6,44.6,30.38,SSW,200,6.0,12.0,83,0.00,,,0.04,Wunderground v.1.15,2013-02-13 01:35:00,
2013-02-12 17:40:00,49.5,44.6,30.38,SW,223,11.0,11.0,83,0.00,,,0.04,Wunderground v.1.15,2013-02-13 01:40:00,
2013-02-12 17:45:00,49.4,44.5,30.38,West,259,6.0,12.0,83,0.00,,,0.04,Wunderground v.1.15,2013-02-13 01:45:00,
2013-02-12 17:50:00,49.4,44.8,30.38,SW,221,9.0,12.0,84,0.00,,,0.04,Wunderground v.1.15,2013-02-13 01:50:00,
2013-02-12 17:55:00,49.2,44.6,30.38,SSW,209,6.0,12.0,84,0.00,,,0.04,Wunderground v.1.15,2013-02-13 01:55:00,
2013-02-12 18:00:00,49.2,44.6,30.38,SSW,213,1.0,6.0,84,0.00,,,0.04,Wunderground v.1.15,2013-02-13 02:00:00,
2013-02-12 18:05:00,49.2,44.6,30.37,SW,217,5.0,14.0,84,0.00,,,0.04,Wunderground v.1.15,2013-02-13 02:05:00,
2013-02-12 18:10:00,49.2,44.9,30.38,South,191,1.0,7.0,85,0.00,,,0.04,Wunderground v.1.15,2013-02-13 02:10:00,
2013-02-12 18:15:00,49.2,44.9,30.37,SSE,163,10.0,13.0,85,0.00,,,0.04,Wunderground v.1.15,2013-02-13 02:15:00,
2013-02-12 18:20:00,49.2,44.9,30.37,SW,227,0.0,4.0,85,0.00,,,0.04,Wunderground v.1.15,2013-02-13 02:20:00,
2013-02-12 18:25:00,49.2,44.9,30.37,SW,214,2.0,7.0,85,0.00,,,0.04,Wunderground v.1.15,2013-02-13 02:25:00,
2013-02-12 18:30:00,49.2,44.9,30.38,SW,216,2.0,5.0,85,0.00,,,0.04,Wunderground v.1.15,2013-02-13 02:30:00,
2013-02-12 18:35:00,49.2,44.9,30.38,SW,221,0.0,5.0,85,0.00,,,0.04,Wunderground v.1.15,2013-02-13 02:35:00,
2013-02-12 18:40:00,49.2,44.9,30.38,WSW,237,3.0,5.0,85,0.00,,,0.04,Wunderground v.1.15,2013-02-13 02:40:00,
2013-02-12 18:45:00,49.2,44.9,30.38,WSW,246,0.0,5.0,85,0.00,,,0.04,Wunderground v.1.15,2013-02-13 02:45:00,
2013-02-12 18:50:00,49.2,44.9,30.38,SW,232,0.0,4.0,85,0.00,,,0.04,Wunderground v.1.15,2013-02-13 02:50:00,
2013-02-12 18:55:00,49.2,44.9,30.37,SW,227,1.0,5.0,85,0.00,,,0.04,Wunderground v.1.15,2013-02-13 02:55:00,
2013-02-12 19:00:00,49.2,44.6,30.38,South,175,2.0,4.0,84,0.00,,,0.04,Wunderground v.1.15,2013-02-13 03:00:00,
2013-02-12 19:05:00,49.2,44.6,30.38,SSW,210,1.0,6.0,84,0.00,,,0.04,Wunderground v.1.15,2013-02-13 03:05:00,
2013-02-12 19:10:00,49.2,44.6,30.37,SW,223,2.0,5.0,84,0.00,,,0.04,Wunderground v.1.15,2013-02-13 03:10:00,
2013-02-12 19:16:00,49.2,44.6,30.37,NNW,346,2.0,13.0,84,0.00,,,0.04,Wunderground v.1.15,2013-02-13 03:16:00,
2013-02-12 19:21:00,49.2,44.6,30.37,WSW,240,5.0,6.0,84,0.00,,,0.04,Wunderground v.1.15,2013-02-13 03:21:00,
2013-02-12 19:26:00,49.2,44.6,30.37,SSE,154,2.0,13.0,84,0.00,,,0.04,Wunderground v.1.15,2013-02-13 03:26:00,
2013-02-12 19:31:00,49.1,44.5,30.37,SW,219,10.0,12.0,84,0.00,,,0.04,Wunderground v.1.15,2013-02-13 03:31:00,
2013-02-12 19:36:00,49.0,44.7,30.36,West,273,1.0,13.0,85,0.00,,,0.04,Wunderground v.1.15,2013-02-13 03:36:00,
2013-02-12 19:41:00,48.9,44.6,30.36,SSW,210,3.0,9.0,85,0.00,,,0.04,Wunderground v.1.15,2013-02-13 03:41:00,
2013-02-12 19:46:00,48.8,44.5,30.36,SW,231,6.0,12.0,85,0.00,,,0.04,Wunderground v.1.15,2013-02-13 03:46:00,
2013-02-12 19:51:00,48.7,44.4,30.37,SSE,161,3.0,11.0,85,0.00,,,0.04,Wunderground v.1.15,2013-02-13 03:51:00,
2013-02-12 19:56:00,48.7,44.4,30.37,SSW,196,9.0,12.0,85,0.00,,,0.04,Wunderground v.1.15,2013-02-13 03:56:00,
2013-02-12 20:01:00,48.7,44.1,30.37,SSW,197,2.0,6.0,84,0.00,,,0.04,Wunderground v.1.15,2013-02-13 04:01:00,
2013-02-12 20:06:00,48.7,44.1,30.37,South,189,3.0,11.0,84,0.00,,,0.04,Wunderground v.1.15,2013-02-13 04:06:00,
2013-02-12 20:11:00,48.7,44.1,30.37,SSE,156,9.0,11.0,84,0.00,,,0.04,Wunderground v.1.15,2013-02-13 04:11:00,
2013-02-12 20:16:00,48.7,44.1,30.36,SW,229,11.0,14.0,84,0.00,,,0.04,Wunderground v.1.15,2013-02-13 04:16:00,
2013-02-12 20:21:00,48.7,44.1,30.36,SW,223,9.0,14.0,84,0.00,,,0.04,Wunderground v.1.15,2013-02-13 04:21:00,
2013-02-12 20:26:00,48.7,44.1,30.36,NNW,340,1.0,16.0,84,0.00,,,0.04,Wunderground v.1.15,2013-02-13 04:26:00,
2013-02-12 20:31:00,48.8,44.2,30.36,SSE,160,6.0,15.0,84,0.00,,,0.04,Wunderground v.1.15,2013-02-13 04:31:00,
2013-02-12 20:36:00,48.8,44.2,30.36,SW,217,10.0,16.0,84,0.00,,,0.04,Wunderground v.1.15,2013-02-13 04:36:00,
2013-02-12 20:41:00,48.7,44.1,30.36,SW,221,2.0,13.0,84,0.00,,,0.04,Wunderground v.1.15,2013-02-13 04:41:00,
2013-02-12 20:46:00,48.7,44.4,30.36,SW,224,3.0,15.0,85,0.00,,,0.04,Wunderground v.1.15,2013-02-13 04:46:00,
2013-02-12 20:51:00,48.7,44.1,30.36,SSW,211,8.0,16.0,84,0.00,,,0.04,Wunderground v.1.15,2013-02-13 04:51:00,
2013-02-12 20:56:00,48.7,44.1,30.36,West,270,4.0,16.0,84,0.00,,,0.04,Wunderground v.1.15,2013-02-13 04:56:00,
2013-02-12 21:00:00,48.6,44.0,30.36,SW,215,9.0,9.0,84,0.00,,,0.04,Wunderground v.1.15,2013-02-13 05:00:00,
2013-02-12 21:06:00,48.6,44.0,30.36,SW,225,12.0,14.0,84,0.00,,,0.04,Wunderground v.1.15,2013-02-13 05:06:00,
2013-02-12 21:11:00,48.6,44.0,30.36,SW,215,8.0,14.0,84,0.00,,,0.04,Wunderground v.1.15,2013-02-13 05:11:00,
2013-02-12 21:16:00,48.6,44.0,30.36,West,279,2.0,18.0,84,0.00,,,0.04,Wunderground v.1.15,2013-02-13 05:16:00,
2013-02-12 21:21:00,48.6,44.0,30.36,SSW,200,6.0,13.0,84,0.00,,,0.04,Wunderground v.1.15,2013-02-13 05:21:00,
2013-02-12 21:26:00,48.5,43.9,30.36,South,190,8.0,13.0,84,0.00,,,0.04,Wunderground v.1.15,2013-02-13 05:26:00,
2013-02-12 21:31:00,48.5,43.9,30.35,SSW,202,6.0,12.0,84,0.00,,,0.04,Wunderground v.1.15,2013-02-13 05:31:00,
2013-02-12 21:36:00,48.5,43.9,30.35,SSE,161,9.0,15.0,84,0.00,,,0.04,Wunderground v.1.15,2013-02-13 05:36:00,
2013-02-12 21:41:00,48.5,43.9,30.35,SSE,155,9.0,15.0,84,0.00,,,0.04,Wunderground v.1.15,2013-02-13 05:41:00,
2013-02-12 21:46:00,48.5,43.9,30.35,SE,146,6.0,15.0,84,0.00,,,0.04,Wunderground v.1.15,2013-02-13 05:46:00,
2013-02-12 21:51:00,48.4,44.1,30.35,SSE,161,2.0,10.0,85,0.00,,,0.04,Wunderground v.1.15,2013-02-13 05:51:00,
2013-02-12 21:56:00,48.3,44.0,30.35,SE,132,7.0,14.0,85,0.00,,,0.04,Wunderground v.1.15,2013-02-13 05:56:00,
2013-02-12 22:01:00,48.3,44.0,30.35,SE,146,2.0,15.0,85,0.00,,,0.04,Wunderground v.1.15,2013-02-13 06:01:00,
2013-02-12 22:06:00,48.3,44.0,30.35,SW,229,3.0,15.0,85,0.00,,,0.04,Wunderground v.1.15,2013-02-13 06:06:00,
2013-02-12 22:11:00,48.2,43.9,30.35,WSW,256,7.0,10.0,85,0.00,,,0.04,Wunderground v.1.15,2013-02-13 06:11:00,
2013-02-12 22:16:00,48.2,43.9,30.35,SW,234,0.0,12.0,85,0.00,,,0.04,Wunderground v.1.15,2013-02-13 06:16:00,
2013-02-12 22:21:00,48.2,43.9,30.35,SW,220,5.0,11.0,85,0.00,,,0.04,Wunderground v.1.15,2013-02-13 06:21:00,
2013-02-12 22:26:00,48.1,43.8,30.35,South,189,10.0,16.0,85,0.00,,,0.04,Wunderground v.1.15,2013-02-13 06:26:00,
2013-02-12 22:31:00,48.1,44.1,30.35,ESE,119,9.0,14.0,86,0.00,,,0.04,Wunderground v.1.15,2013-02-13 06:31:00,
2013-02-12 22:36:00,48.0,44.0,30.35,West,273,6.0,15.0,86,0.00,,,0.04,Wunderground v.1.15,2013-02-13 06:36:00,
2013-02-12 22:41:00,48.0,44.0,30.35,South,169,14.0,14.0,86,0.00,,,0.04,Wunderground v.1.15,2013-02-13 06:41:00,
2013-02-12 22:46:00,48.1,43.8,30.36,SW,220,5.0,14.0,85,0.00,,,0.04,Wunderground v.1.15,2013-02-13 06:46:00,
2013-02-12 22:52:00,48.1,43.8,30.37,South,186,3.0,7.0,85,0.00,,,0.04,Wunderground v.1.15,2013-02-13 06:52:00,
2013-02-12 22:57:00,48.1,43.8,30.36,SSW,203,0.0,11.0,85,0.00,,,0.04,Wunderground v.1.15,2013-02-13 06:57:00,
2013-02-12 23:02:00,48.1,43.8,30.36,SSW,193,0.0,10.0,85,0.00,,,0.04,Wunderground v.1.15,2013-02-13 07:02:00,
2013-02-12 23:07:00,48.1,43.8,30.36,SW,227,4.0,10.0,85,0.00,,,0.04,Wunderground v.1.15,2013-02-13 07:07:00,
2013-02-12 23:12:00,48.1,43.8,30.36,South,187,5.0,7.0,85,0.00,,,0.04,Wunderground v.1.15,2013-02-13 07:12:00,
2013-02-12 23:17:00,48.1,43.8,30.36,SSW,198,2.0,13.0,85,0.00,,,0.04,Wunderground v.1.15,2013-02-13 07:17:00,
2013-02-12 23:22:00,48.1,43.8,30.36,SSW,199,3.0,7.0,85,0.00,,,0.04,Wunderground v.1.15,2013-02-13 07:22:00,
2013-02-12 23:27:00,48.1,44.1,30.36,SW,219,6.0,16.0,86,0.00,,,0.04,Wunderground v.1.15,2013-02-13 07:27:00,
2013-02-12 23:32:00,48.1,44.1,30.36,SSE,161,9.0,10.0,86,0.00,,,0.04,Wunderground v.1.15,2013-02-13 07:32:00,
2013-02-12 23:37:00,48.2,43.9,30.35,SW,227,6.0,16.0,85,0.00,,,0.04,Wunderground v.1.15,2013-02-13 07:37:00,
2013-02-12 23:42:00,48.3,44.0,30.35,SW,236,1.0,9.0,85,0.00,,,0.04,Wunderground v.1.15,2013-02-13 07:42:00,
2013-02-12 23:47:00,48.2,43.9,30.35,SW,228,12.0,12.0,85,0.00,,,0.04,Wunderground v.1.15,2013-02-13 07:47:00,
2013-02-12 23:52:00,48.1,44.1,30.36,SW,221,0.0,9.0,86,0.00,,,0.04,Wunderground v.1.15,2013-02-13 07:52:00,
2013-02-12 23:57:00,48.1,44.1,30.36,South,186,0.0,9.0,86,0.00,,,0.04,Wunderground v.1.15,2013-02-13 07:57:00,